This is the latest recevied weather packets stored in our database for station/object DB0TGO-13. If no packets are shown the sender has not sent any weather packets the latest 10 day(s).
| Time | Temp. | Humidity | Pressure | Rain* | Wind** | Luminosity | Snow |
|---|---|---|---|---|---|---|---|
| 1778001302 | 17.78° C | 70% | 1002.1 hPa | - | - | - | - |
| 1778000402 | 17.78° C | 70% | 1002.1 hPa | - | - | - | - |
| 1777999502 | 17.78° C | 70% | 1002.3 hPa | - | - | - | - |
| 1777998602 | 17.78° C | 70% | 1002.3 hPa | - | - | - | - |
| 1777997702 | 17.78° C | 69% | 1002.4 hPa | - | - | - | - |
| 1777996802 | 17.78° C | 69% | 1002.4 hPa | - | - | - | - |
| 1777995902 | 18.33° C | 68% | 1002.4 hPa | - | - | - | - |
| 1777995003 | 18.33° C | 68% | 1002.4 hPa | - | - | - | - |
| 1777994103 | 19.44° C | 60% | 1002.4 hPa | - | - | - | - |
| 1777993202 | 19.44° C | 60% | 1002.4 hPa | - | - | - | - |
| 1777992302 | 19.44° C | 59% | 1002.6 hPa | - | - | - | - |
| 1777991403 | 19.44° C | 59% | 1002.6 hPa | - | - | - | - |
| 1777990502 | 18.89° C | 64% | 1002.8 hPa | - | - | - | - |
| 1777989602 | 18.89° C | 64% | 1002.8 hPa | - | - | - | - |
| 1777988702 | 18.89° C | 63% | 1003 hPa | - | - | - | - |
| 1777987803 | 18.89° C | 63% | 1003 hPa | - | - | - | - |
| 1777986902 | 18.33° C | 66% | 1003.2 hPa | - | - | - | - |
| 1777986003 | 18.33° C | 66% | 1003.2 hPa | - | - | - | - |
| 1777985103 | 17.78° C | 69% | 1003.3 hPa | - | - | - | - |
| 1777984202 | 17.78° C | 69% | 1003.3 hPa | - | - | - | - |
| 1777983302 | 17.78° C | 69% | 1003.6 hPa | - | - | - | - |
| 1777982402 | 17.78° C | 69% | 1003.6 hPa | - | - | - | - |
| 1777981503 | 17.22° C | 70% | 1003.8 hPa | - | - | - | - |
| 1777980602 | 17.22° C | 70% | 1003.8 hPa | - | - | - | - |
| 1777979702 | 17.22° C | 75% | 1003.9 hPa | - | - | - | - |
* Rain since midnight (hover to see other rain measurements)
** Current wind speed in m/s (hover to see current wind gust speed)